Weather at Park Farm Airstrip

Public forecast

Using degrees Celsius for public forecast. Weather courtesy of forecast.io.

Closest aviation weather report (METAR) to Park Farm Airstrip

Closest report is London Luton Airport, 8.9 nm (16.4 km) E. Retrieved 2021/06/12 10:20 UTC (2 minutes ago):

EGGW 121020Z AUTO 32008KT 270V020 9999 BKN033 19/10 Q1023

Closest aviation forecast (TAF) to Park Farm Airstrip

Closest forecast is London Luton Airport, 8.9 nm (16.4 km) E. Retrieved 2021/06/12 06:00 UTC (4 hours ago):

TAF EGGW 120453Z 1206/1306 30008KT 9999 SCT035